^^
Station Historical Data
Daily Summary for January 19, 2018 Units:  Both    English   Metric
« Previous Day
Next Day »
Daily Weekly Monthly Yearly Custom
  High: Low: Average:
Temperature: TemperatureF °F /  -17.8 °C 73.6 °F /  23.1 °C 80.9 °F /  27.2 °C
Dew Point: DewpointF °F /  -17.8 °C 45.7 °F /  7.6 °C 47.2 °F /  8.4 °C
Humidity: Humidity% 24% 31%
Wind Speed: WindSpeedMPHmph /  0km/h - 7.4mph /  11.9km/h
Wind Gust: WindSpeedGustMPHmph /  0km/h - -
Wind- - SSE
Pressure: PressureIn in /  0 hPa 29.46 in /  997.5 hPa -
Precipitation: 0.00 in /  0 mm    
Historical Graphs
 
 
Tabular Data for January 19, 2018
Time Temperature Dew Point Pressure Wind Wind Speed Wind Gust Humidity Rainfall Rate (Hourly) solar Conditions
TemperatureF °F /  -17.8 °C DewpointF °F /  -17.8 °C PressureInin /  0hPa Calm     Humidity% HourlyPrecipInin /  0mm SoftwareType W/m2 Conditions
08:52 73.6 °F /  23.1 °C 48.4 °F /  9.1 °C 29.64in /  1003.6hPa North 10.1mph /  16.3km/h 15.0mph /  24.1km/h 41% 0.00in /  0mm meteobridge W/m2
08:59 74.1 °F /  23.4 °C 48.2 °F /  9 °C 29.62in /  1002.9hPa North 12.1mph /  19.5km/h 15.0mph /  24.1km/h 40% 0.00in /  0mm meteobridge W/m2
09:05 73.8 °F /  23.2 °C 48.0 °F /  8.9 °C 29.62in /  1002.9hPa NW 13.0mph /  20.9km/h 17.0mph /  27.4km/h 40% 0.00in /  0mm meteobridge W/m2
09:11 73.9 °F /  23.3 °C 48.0 °F /  8.9 °C 29.63in /  1003.3hPa West 6.9mph /  11.1km/h 21.0mph /  33.8km/h 40% 0.00in /  0mm meteobridge W/m2
09:17 74.5 °F /  23.6 °C 47.1 °F /  8.4 °C 29.63in /  1003.3hPa NNE 21.0mph /  33.8km/h 25.0mph /  40.2km/h 38% 0.00in /  0mm meteobridge W/m2
09:23 74.8 °F /  23.8 °C 47.5 °F /  8.6 °C 29.62in /  1002.9hPa North 8.9mph /  14.3km/h 28.0mph /  45.1km/h 38% 0.00in /  0mm meteobridge W/m2
09:29 75.0 °F /  23.9 °C 46.9 °F /  8.3 °C 29.63in /  1003.3hPa North 17.9mph /  28.8km/h 29.0mph /  46.7km/h 37% 0.00in /  0mm meteobridge W/m2
09:35 75.4 °F /  24.1 °C 47.3 °F /  8.5 °C 29.63in /  1003.3hPa NNW 21.0mph /  33.8km/h 26.0mph /  41.8km/h 37% 0.00in /  0mm meteobridge W/m2
09:41 75.6 °F /  24.2 °C 46.8 °F /  8.2 °C 29.64in /  1003.6hPa North 17.9mph /  28.8km/h 28.0mph /  45.1km/h 36% 0.00in /  0mm meteobridge W/m2
09:47 76.1 °F /  24.5 °C 47.1 °F /  8.4 °C 29.63in /  1003.3hPa NW 14.1mph /  22.7km/h 22.0mph /  35.4km/h 36% 0.00in /  0mm meteobridge W/m2
09:53 76.5 °F /  24.7 °C 46.8 °F /  8.2 °C 29.63in /  1003.3hPa NNE 15.0mph /  24.1km/h 24.0mph /  38.6km/h 35% 0.00in /  0mm meteobridge W/m2
09:59 76.6 °F /  24.8 °C 46.9 °F /  8.3 °C 29.64in /  1003.6hPa NNW 17.0mph /  27.4km/h 28.0mph /  45.1km/h 35% 0.00in /  0mm meteobridge W/m2
10:05 76.8 °F /  24.9 °C 47.1 °F /  8.4 °C 29.64in /  1003.6hPa North 14.1mph /  22.7km/h 18.0mph /  29km/h 35% 0.00in /  0mm meteobridge W/m2
10:12 77.2 °F /  25.1 °C 46.6 °F /  8.1 °C 29.63in /  1003.3hPa NNW 19.9mph /  32km/h 29.0mph /  46.7km/h 34% 0.00in /  0mm meteobridge W/m2
10:18 77.2 °F /  25.1 °C 46.6 °F /  8.1 °C 29.63in /  1003.3hPa North 23.0mph /  37km/h 24.0mph /  38.6km/h 34% 0.00in /  0mm meteobridge W/m2
10:24 77.2 °F /  25.1 °C 46.6 °F /  8.1 °C 29.63in /  1003.3hPa NNW 11.0mph /  17.7km/h 20.0mph /  32.2km/h 34% 0.00in /  0mm meteobridge W/m2
10:30 77.5 °F /  25.3 °C 46.9 °F /  8.3 °C 29.63in /  1003.3hPa NNE 14.1mph /  22.7km/h 22.0mph /  35.4km/h 34% 0.00in /  0mm meteobridge W/m2
10:52 79.3 °F /  26.3 °C 47.7 °F /  8.7 °C 29.63in /  1003.3hPa NNW 16.1mph /  25.9km/h 19.0mph /  30.6km/h 33% 0.00in /  0mm meteobridge W/m2
10:58 79.3 °F /  26.3 °C 47.7 °F /  8.7 °C 29.63in /  1003.3hPa North 4.0mph /  6.4km/h 18.0mph /  29km/h 33% 0.00in /  0mm meteobridge W/m2
11:04 79.5 °F /  26.4 °C 47.1 °F /  8.4 °C 29.63in /  1003.3hPa North 4.9mph /  7.9km/h 15.0mph /  24.1km/h 32% 0.00in /  0mm meteobridge W/m2
11:10 79.5 °F /  26.4 °C 47.1 °F /  8.4 °C 29.63in /  1003.3hPa NNW 4.0mph /  6.4km/h 12.0mph /  19.3km/h 32% 0.00in /  0mm meteobridge W/m2
11:16 79.5 °F /  26.4 °C 47.8 °F /  8.8 °C 29.62in /  1002.9hPa NNW 11.0mph /  17.7km/h 20.0mph /  32.2km/h 33% 0.00in /  0mm meteobridge W/m2
11:22 80.1 °F /  26.7 °C 47.5 °F /  8.6 °C 29.62in /  1002.9hPa North 11.0mph /  17.7km/h 27.0mph /  43.5km/h 32% 0.00in /  0mm meteobridge W/m2
11:46 81.3 °F /  27.4 °C 47.8 °F /  8.8 °C 29.61in /  1002.6hPa NNW 6.0mph /  9.7km/h 15.0mph /  24.1km/h 31% 0.00in /  0mm meteobridge W/m2
11:53 81.0 °F /  27.2 °C 48.4 °F /  9.1 °C 29.60in /  1002.3hPa NE 4.9mph /  7.9km/h 16.0mph /  25.7km/h 32% 0.00in /  0mm meteobridge W/m2
11:59 82.4 °F /  28 °C 48.7 °F /  9.3 °C 29.60in /  1002.3hPa North 10.1mph /  16.3km/h 15.0mph /  24.1km/h 31% 0.00in /  0mm meteobridge W/m2
12:05 82.8 °F /  28.2 °C 48.2 °F /  9 °C 29.60in /  1002.3hPa Calm   14.0mph /  22.5km/h 30% 0.00in /  0mm meteobridge W/m2
12:11 82.9 °F /  28.3 °C 48.4 °F /  9.1 °C 29.60in /  1002.3hPa North 11.0mph /  17.7km/h 19.0mph /  30.6km/h 30% 0.00in /  0mm meteobridge W/m2
12:17 82.2 °F /  27.9 °C 47.7 °F /  8.7 °C 29.59in /  1001.9hPa NNE 8.9mph /  14.3km/h 15.0mph /  24.1km/h 30% 0.00in /  0mm meteobridge W/m2
12:23 82.0 °F /  27.8 °C 48.4 °F /  9.1 °C 29.59in /  1001.9hPa SSE 6.0mph /  9.7km/h 12.0mph /  19.3km/h 31% 0.00in /  0mm meteobridge W/m2
12:29 84.0 °F /  28.9 °C 49.3 °F /  9.6 °C 29.59in /  1001.9hPa North 11.0mph /  17.7km/h 13.0mph /  20.9km/h 30% 0.00in /  0mm meteobridge W/m2
12:35 84.2 °F /  29 °C 48.6 °F /  9.2 °C 29.58in /  1001.6hPa North 17.9mph /  28.8km/h 18.0mph /  29km/h 29% 0.00in /  0mm meteobridge W/m2
12:42 84.2 °F /  29 °C 48.6 °F /  9.2 °C 29.58in /  1001.6hPa ENE 2.0mph /  3.2km/h 7.0mph /  11.3km/h 29% 0.00in /  0mm meteobridge W/m2
12:48 84.0 °F /  28.9 °C 48.4 °F /  9.1 °C 29.58in /  1001.6hPa NE 11.0mph /  17.7km/h 14.0mph /  22.5km/h 29% 0.00in /  0mm meteobridge W/m2
12:54 84.0 °F /  28.9 °C 48.4 °F /  9.1 °C 29.57in /  1001.2hPa NNE 11.0mph /  17.7km/h 13.0mph /  20.9km/h 29% 0.00in /  0mm meteobridge W/m2
13:00 84.7 °F /  29.3 °C 48.9 °F /  9.4 °C 29.57in /  1001.2hPa NNE 10.1mph /  16.3km/h 13.0mph /  20.9km/h 29% 0.00in /  0mm meteobridge W/m2
13:06 84.4 °F /  29.1 °C 48.7 °F /  9.3 °C 29.58in /  1001.6hPa North 4.9mph /  7.9km/h 7.0mph /  11.3km/h 29% 0.00in /  0mm meteobridge W/m2
13:12 83.1 °F /  28.4 °C 47.7 °F /  8.7 °C 29.57in /  1001.2hPa North 10.1mph /  16.3km/h 10.1mph /  16.3km/h 29% 0.00in /  0mm meteobridge W/m2
13:18 84.7 °F /  29.3 °C 48.0 °F /  8.9 °C 29.57in /  1001.2hPa North 2.9mph /  4.7km/h 7.0mph /  11.3km/h 28% 0.00in /  0mm meteobridge W/m2
13:24 86.5 °F /  30.3 °C 48.6 °F /  9.2 °C 29.57in /  1001.2hPa South 2.9mph /  4.7km/h 3.0mph /  4.8km/h 27% 0.00in /  0mm meteobridge W/m2
13:30 87.1 °F /  30.6 °C 48.0 °F /  8.9 °C 29.56in /  1000.9hPa Calm   9.0mph /  14.5km/h 26% 0.00in /  0mm meteobridge W/m2
13:37 87.4 °F /  30.8 °C 48.4 °F /  9.1 °C 29.56in /  1000.9hPa West 2.0mph /  3.2km/h 7.0mph /  11.3km/h 26% 0.00in /  0mm meteobridge W/m2
13:43 88.0 °F /  31.1 °C 48.7 °F /  9.3 °C 29.55in /  1000.6hPa NNE 11.0mph /  17.7km/h 19.0mph /  30.6km/h 26% 0.00in /  0mm meteobridge W/m2
13:49 85.1 °F /  29.5 °C 47.3 °F /  8.5 °C 29.55in /  1000.6hPa NNE 6.0mph /  9.7km/h 12.0mph /  19.3km/h 27% 0.00in /  0mm meteobridge W/m2
13:55 83.5 °F /  28.6 °C 46.9 °F /  8.3 °C 29.55in /  1000.6hPa North 8.9mph /  14.3km/h 11.0mph /  17.7km/h 28% 0.00in /  0mm meteobridge W/m2
14:01 82.8 °F /  28.2 °C 46.4 °F /  8 °C 29.55in /  1000.6hPa NNW 11.0mph /  17.7km/h 14.0mph /  22.5km/h 28% 0.00in /  0mm meteobridge W/m2
14:07 82.6 °F /  28.1 °C 47.1 °F /  8.4 °C 29.55in /  1000.6hPa Calm   6.0mph /  9.7km/h 29% 0.00in /  0mm meteobridge W/m2
14:13 82.4 °F /  28 °C 46.0 °F /  7.8 °C 29.55in /  1000.6hPa South 2.9mph /  4.7km/h 5.0mph /  8km/h 28% 0.00in /  0mm meteobridge W/m2
14:20 82.4 °F /  28 °C 46.0 °F /  7.8 °C 29.54in /  1000.2hPa Calm   4.0mph /  6.4km/h 28% 0.00in /  0mm meteobridge W/m2
14:26 82.9 °F /  28.3 °C 47.5 °F /  8.6 °C 29.54in /  1000.2hPa ESE 4.9mph /  7.9km/h 7.0mph /  11.3km/h 29% 0.00in /  0mm meteobridge W/m2
14:32 83.1 °F /  28.4 °C 47.7 °F /  8.7 °C 29.54in /  1000.2hPa NNW 6.9mph /  11.1km/h 14.0mph /  22.5km/h 29% 0.00in /  0mm meteobridge W/m2
14:38 82.9 °F /  28.3 °C 47.5 °F /  8.6 °C 29.54in /  1000.2hPa Calm   5.0mph /  8km/h 29% 0.00in /  0mm meteobridge W/m2
14:44 82.6 °F /  28.1 °C 47.1 °F /  8.4 °C 29.54in /  1000.2hPa NNE 6.0mph /  9.7km/h 7.0mph /  11.3km/h 29% 0.00in /  0mm meteobridge W/m2
14:50 82.8 °F /  28.2 °C 48.2 °F /  9 °C 29.53in /  999.9hPa NNE 4.9mph /  7.9km/h 5.0mph /  8km/h 30% 0.00in /  0mm meteobridge W/m2
14:56 82.8 °F /  28.2 °C 47.3 °F /  8.5 °C 29.53in /  999.9hPa North 2.9mph /  4.7km/h 3.0mph /  4.8km/h 29% 0.00in /  0mm meteobridge W/m2
15:02 83.1 °F /  28.4 °C 46.6 °F /  8.1 °C 29.53in /  999.9hPa NNE 2.9mph /  4.7km/h 7.0mph /  11.3km/h 28% 0.00in /  0mm meteobridge W/m2
15:08 83.7 °F /  28.7 °C 47.1 °F /  8.4 °C 29.52in /  999.5hPa Calm   7.0mph /  11.3km/h 28% 0.00in /  0mm meteobridge W/m2
15:14 83.5 °F /  28.6 °C 46.9 °F /  8.3 °C 29.52in /  999.5hPa Calm   4.0mph /  6.4km/h 28% 0.00in /  0mm meteobridge W/m2
15:20 83.7 °F /  28.7 °C 47.1 °F /  8.4 °C 29.52in /  999.5hPa SSW 2.0mph /  3.2km/h 7.0mph /  11.3km/h 28% 0.00in /  0mm meteobridge W/m2
15:26 83.8 °F /  28.8 °C 47.3 °F /  8.5 °C 29.51in /  999.2hPa Calm   3.0mph /  4.8km/h 28% 0.00in /  0mm meteobridge W/m2
15:33 84.6 °F /  29.2 °C 46.9 °F /  8.3 °C 29.51in /  999.2hPa NNW 11.0mph /  17.7km/h 11.0mph /  17.7km/h 27% 0.00in /  0mm meteobridge W/m2
15:39 85.6 °F /  29.8 °C 47.8 °F /  8.8 °C 29.51in /  999.2hPa SE 4.0mph /  6.4km/h 5.0mph /  8km/h 27% 0.00in /  0mm meteobridge W/m2
15:45 87.3 °F /  30.7 °C 48.2 °F /  9 °C 29.50in /  998.9hPa South 6.0mph /  9.7km/h 7.0mph /  11.3km/h 26% 0.00in /  0mm meteobridge W/m2
15:51 88.2 °F /  31.2 °C 47.8 °F /  8.8 °C 29.50in /  998.9hPa Calm     25% 0.00in /  0mm meteobridge W/m2
15:57 88.9 °F /  31.6 °C 47.5 °F /  8.6 °C 29.49in /  998.5hPa Calm   6.0mph /  9.7km/h 24% 0.00in /  0mm meteobridge W/m2
16:18 87.4 °F /  30.8 °C 47.3 °F /  8.5 °C 29.48in /  998.2hPa SE 2.9mph /  4.7km/h 9.0mph /  14.5km/h 25% 0.00in /  0mm meteobridge W/m2
16:24 87.3 °F /  30.7 °C 47.1 °F /  8.4 °C 29.47in /  997.9hPa ESE 2.0mph /  3.2km/h 3.0mph /  4.8km/h 25% 0.00in /  0mm meteobridge W/m2
16:30 88.2 °F /  31.2 °C 46.8 °F /  8.2 °C 29.47in /  997.9hPa ESE 2.9mph /  4.7km/h 3.0mph /  4.8km/h 24% 0.00in /  0mm meteobridge W/m2
16:36 87.3 °F /  30.7 °C 47.1 °F /  8.4 °C 29.47in /  997.9hPa ESE 0.9mph /  1.4km/h 10.0mph /  16.1km/h 25% 0.00in /  0mm meteobridge W/m2
16:42 87.4 °F /  30.8 °C 47.3 °F /  8.5 °C 29.46in /  997.5hPa North 6.9mph /  11.1km/h 7.0mph /  11.3km/h 25% 0.00in /  0mm meteobridge W/m2
16:48 86.5 °F /  30.3 °C 46.6 °F /  8.1 °C 29.47in /  997.9hPa NNW 12.1mph /  19.5km/h 13.0mph /  20.9km/h 25% 0.00in /  0mm meteobridge W/m2
16:54 84.9 °F /  29.4 °C 46.2 °F /  7.9 °C 29.47in /  997.9hPa North 6.9mph /  11.1km/h 11.0mph /  17.7km/h 26% 0.00in /  0mm meteobridge W/m2
17:01 85.6 °F /  29.8 °C 46.8 °F /  8.2 °C 29.47in /  997.9hPa NNE 0.9mph /  1.4km/h 1.0mph /  1.6km/h 26% 0.00in /  0mm meteobridge W/m2
17:07 85.8 °F /  29.9 °C 46.9 °F /  8.3 °C 29.46in /  997.5hPa North 4.0mph /  6.4km/h 6.0mph /  9.7km/h 26% 0.00in /  0mm meteobridge W/m2
17:13 85.5 °F /  29.7 °C 45.7 °F /  7.6 °C 29.47in /  997.9hPa North 2.9mph /  4.7km/h 7.0mph /  11.3km/h 25% 0.00in /  0mm meteobridge W/m2
17:19 84.7 °F /  29.3 °C 46.0 °F /  7.8 °C 29.47in /  997.9hPa ENE 4.0mph /  6.4km/h 6.0mph /  9.7km/h 26% 0.00in /  0mm meteobridge W/m2
17:25 83.3 °F /  28.5 °C 47.7 °F /  8.7 °C 29.47in /  997.9hPa South 10.1mph /  16.3km/h 12.0mph /  19.3km/h 29% 0.00in /  0mm meteobridge W/m2
17:31 81.9 °F /  27.7 °C 48.2 °F /  9 °C 29.47in /  997.9hPa South 2.0mph /  3.2km/h 6.0mph /  9.7km/h 31% 0.00in /  0mm meteobridge W/m2
17:37 81.5 °F /  27.5 °C 48.0 °F /  8.9 °C 29.47in /  997.9hPa SE 6.0mph /  9.7km/h 9.0mph /  14.5km/h 31% 0.00in /  0mm meteobridge W/m2
17:43 81.1 °F /  27.3 °C 47.7 °F /  8.7 °C 29.48in /  998.2hPa SE 4.0mph /  6.4km/h 4.0mph /  6.4km/h 31% 0.00in /  0mm meteobridge W/m2
17:49 80.8 °F /  27.1 °C 47.3 °F /  8.5 °C 29.47in /  997.9hPa SE 14.1mph /  22.7km/h 17.0mph /  27.4km/h 31% 0.00in /  0mm meteobridge W/m2
18:08 77.2 °F /  25.1 °C 53.6 °F /  12 °C 29.49in /  998.5hPa NE 11.0mph /  17.7km/h 16.0mph /  25.7km/h 44% 0.00in /  0mm meteobridge W/m2
18:14 75.4 °F /  24.1 °C 52.5 °F /  11.4 °C 29.50in /  998.9hPa ENE 2.9mph /  4.7km/h 3.0mph /  4.8km/h 45% 0.00in /  0mm meteobridge W/m2
18:20 75.4 °F /  24.1 °C 52.5 °F /  11.4 °C 29.51in /  999.2hPa ENE 2.9mph /  4.7km/h -999.0mph /  -1607.7km/h 45% 0.00in /  0mm meteobridge W/m2
18:26 75.4 °F /  24.1 °C 52.5 °F /  11.4 °C 29.52in /  999.5hPa ENE 2.9mph /  4.7km/h -999.0mph /  -1607.7km/h 45% 0.00in /  0mm meteobridge W/m2
Regenstein, Windhoek, Namibia
Compliments of Weather Underground - 2.5 mb